Time;durP1;ratioP1;P1;durP2;ratioP2;P2;SDS_P1;SDS_P2;PMS_P1;PMS_P2;Temp;Humidity;BMP_temperature;BMP_pressure;BME280_temperature;BME280_humidity;BME280_pressure;Samples;Min_cycle;Max_cycle;Signal;HPM_P1;HPM_P2
2021/07/01 00:00:34;;;;;;;13.70;6.25;;;17.40;99.90;;;;;;5089210;28;20103;-78
2021/07/01 00:03:00;;;;;;;9.80;5.68;;;17.40;99.90;;;;;;5089351;28;20103;-77
2021/07/01 00:05:26;;;;;;;9.38;4.90;;;17.40;99.90;;;;;;5088871;28;20024;-78
2021/07/01 00:07:51;;;;;;;7.60;5.50;;;17.40;99.90;;;;;;5088898;28;20040;-77
2021/07/01 00:10:24;;;;;;;8.80;5.85;;;17.40;99.90;;;;;;5089156;28;20059;-78
2021/07/01 00:12:50;;;;;;;11.10;6.38;;;17.40;99.90;;;;;;5088958;28;20634;-78
2021/07/01 00:15:19;;;;;;;10.60;5.82;;;17.40;99.90;;;;;;5089093;28;20034;-78
2021/07/01 00:17:46;;;;;;;9.80;5.53;;;17.40;99.90;;;;;;5087407;28;20483;-78
2021/07/01 00:20:12;;;;;;;9.65;6.28;;;17.40;99.90;;;;;;5088856;28;20089;-77
2021/07/01 00:22:38;;;;;;;11.90;7.60;;;17.40;99.90;;;;;;5088507;28;20070;-77
2021/07/01 00:25:10;;;;;;;13.88;7.60;;;17.30;99.90;;;;;;5088510;28;20490;-78
2021/07/01 00:27:35;;;;;;;12.98;7.63;;;17.30;99.90;;;;;;5088753;28;20024;-77
2021/07/01 00:30:01;;;;;;;13.32;8.07;;;17.30;99.90;;;;;;5088806;28;20020;-78
2021/07/01 00:32:27;;;;;;;13.13;8.27;;;17.30;99.90;;;;;;5088461;28;20112;-78
2021/07/01 00:34:53;;;;;;;12.25;7.88;;;17.30;99.90;;;;;;5088761;28;20111;-77
2021/07/01 00:37:18;;;;;;;11.18;7.55;;;17.30;99.90;;;;;;5088690;28;20111;-78
2021/07/01 00:39:44;;;;;;;12.73;7.43;;;17.30;99.90;;;;;;5081634;28;20052;-78
2021/07/01 00:42:09;;;;;;;11.38;6.90;;;17.30;99.90;;;;;;5072515;28;20383;-78
2021/07/01 00:44:35;;;;;;;10.85;7.05;;;17.30;99.90;;;;;;5072487;28;20025;-78
2021/07/01 00:47:00;;;;;;;10.50;6.60;;;17.30;99.90;;;;;;5072609;28;20113;-77
2021/07/01 00:49:26;;;;;;;9.35;5.50;;;17.30;99.90;;;;;;5072336;28;20024;-78
2021/07/01 00:51:52;;;;;;;9.15;5.93;;;17.30;99.90;;;;;;5072420;28;20124;-78
2021/07/01 00:54:18;;;;;;;8.05;5.03;;;17.20;99.90;;;;;;5070945;28;20120;-77
2021/07/01 00:56:44;;;;;;;6.95;4.80;;;17.30;99.90;;;;;;5072076;28;20029;-77
2021/07/01 00:59:09;;;;;;;8.93;5.47;;;17.30;99.90;;;;;;5086827;28;20077;-78
2021/07/01 01:01:35;;;;;;;9.50;5.38;;;17.30;99.90;;;;;;5092318;28;20021;-78
2021/07/01 01:04:01;;;;;;;8.50;6.10;;;17.20;99.90;;;;;;5092512;28;20024;-78
2021/07/01 01:06:26;;;;;;;9.05;5.35;;;17.30;99.90;;;;;;5092205;28;20020;-78
2021/07/01 01:08:54;;;;;;;8.15;5.43;;;17.30;99.90;;;;;;5090659;28;20052;-79
2021/07/01 01:11:23;;;;;;;6.18;4.85;;;17.20;99.90;;;;;;5092769;28;20027;-78
2021/07/01 01:13:51;;;;;;;9.05;5.80;;;17.30;99.90;;;;;;5092477;28;20027;-78
2021/07/01 01:16:17;;;;;;;11.90;5.93;;;17.30;99.90;;;;;;5090812;28;20360;-78
2021/07/01 01:18:43;;;;;;;7.68;5.00;;;17.30;99.90;;;;;;5091986;28;20077;-77
2021/07/01 01:21:16;;;;;;;7.75;5.03;;;17.20;99.90;;;;;;5091931;28;20024;-79
2021/07/01 01:23:42;;;;;;;10.05;5.90;;;17.20;99.90;;;;;;5091854;28;20028;-78
2021/07/01 01:26:08;;;;;;;8.10;4.63;;;17.20;99.90;;;;;;5092152;28;20026;-78
2021/07/01 01:28:35;;;;;;;10.65;5.65;;;17.30;99.90;;;;;;5091965;28;20020;-78
2021/07/01 01:31:01;;;;;;;9.50;6.10;;;17.20;99.90;;;;;;5091917;28;20024;-79
2021/07/01 01:33:27;;;;;;;10.88;6.55;;;17.20;99.90;;;;;;5091505;28;20024;-78
2021/07/01 01:35:52;;;;;;;11.38;7.28;;;17.20;99.90;;;;;;5091606;28;20502;-77
2021/07/01 01:38:19;;;;;;;12.38;7.28;;;17.30;99.90;;;;;;5091775;28;20036;-78
2021/07/01 01:40:47;;;;;;;12.10;7.00;;;17.30;99.90;;;;;;5091311;28;20027;-79
2021/07/01 01:43:14;;;;;;;12.43;7.30;;;17.20;99.90;;;;;;5091854;28;20037;-79
2021/07/01 01:45:41;;;;;;;11.15;6.68;;;17.30;99.90;;;;;;5091448;28;20021;-77
2021/07/01 01:48:07;;;;;;;10.52;6.10;;;17.30;99.90;;;;;;5091672;28;20025;-77
2021/07/01 01:50:33;;;;;;;7.82;5.20;;;17.30;99.90;;;;;;5090501;28;20482;-77
2021/07/01 01:52:59;;;;;;;9.27;5.80;;;17.30;99.90;;;;;;5091225;28;20046;-78
2021/07/01 01:55:25;;;;;;;8.35;5.13;;;17.30;99.90;;;;;;5091224;28;20020;-79
2021/07/01 01:57:51;;;;;;;6.88;4.57;;;17.30;99.90;;;;;;5091332;28;20024;-77
2021/07/01 02:00:19;;;;;;;6.70;4.75;;;17.30;99.90;;;;;;5091179;28;20478;-78
2021/07/01 02:02:45;;;;;;;6.97;4.63;;;17.20;99.90;;;;;;5091030;28;20030;-77
2021/07/01 02:05:11;;;;;;;12.30;5.20;;;17.20;99.90;;;;;;5091519;28;20024;-79
2021/07/01 02:07:37;;;;;;;13.18;5.18;;;17.10;99.90;;;;;;5090884;28;21492;-77
2021/07/01 02:10:05;;;;;;;7.40;4.63;;;17.10;99.90;;;;;;5090941;28;20049;-76
2021/07/01 02:12:31;;;;;;;6.60;4.57;;;17.10;99.90;;;;;;5090815;28;20125;-77
2021/07/01 02:14:58;;;;;;;6.43;4.45;;;17.10;99.90;;;;;;5086666;28;20081;-77
2021/07/01 02:17:24;;;;;;;7.95;4.68;;;17.00;99.90;;;;;;5082070;28;20031;-78
2021/07/01 02:19:49;;;;;;;7.07;4.50;;;17.00;99.90;;;;;;5090640;28;20129;-77
2021/07/01 02:22:15;;;;;;;6.90;4.20;;;17.00;99.90;;;;;;5090649;28;20039;-77
2021/07/01 02:24:41;;;;;;;6.80;3.90;;;16.90;99.90;;;;;;5090693;28;20107;-78
2021/07/01 02:27:08;;;;;;;7.60;4.43;;;16.90;99.90;;;;;;5090873;28;20031;-78
2021/07/01 02:29:34;;;;;;;5.60;3.83;;;16.90;99.90;;;;;;5090632;28;20471;-77
2021/07/01 02:31:59;;;;;;;6.03;3.92;;;16.90;99.90;;;;;;5090763;28;20096;-77
2021/07/01 02:34:25;;;;;;;6.35;4.07;;;16.80;99.90;;;;;;5090501;28;20678;-77
2021/07/01 02:36:50;;;;;;;4.97;3.45;;;16.80;99.90;;;;;;5090578;28;20386;-76
2021/07/01 02:39:16;;;;;;;7.80;3.75;;;16.80;99.90;;;;;;5090504;28;20035;-77
2021/07/01 02:41:41;;;;;;;5.47;3.70;;;16.80;99.90;;;;;;5090478;28;20105;-78
2021/07/01 02:44:07;;;;;;;6.88;3.72;;;16.80;99.90;;;;;;5090653;28;20016;-78
2021/07/01 02:46:32;;;;;;;6.43;3.70;;;16.70;99.90;;;;;;5090436;28;20029;-77
2021/07/01 02:48:58;;;;;;;4.88;3.30;;;16.70;99.90;;;;;;5090480;28;20024;-78
2021/07/01 02:51:23;;;;;;;4.05;2.83;;;16.70;99.90;;;;;;5090516;28;20024;-77
2021/07/01 02:53:49;;;;;;;5.43;3.65;;;16.70;99.90;;;;;;5090026;28;20124;-79
2021/07/01 02:56:15;;;;;;;4.22;2.80;;;16.70;99.90;;;;;;5090549;28;20020;-77
2021/07/01 02:58:41;;;;;;;4.40;3.13;;;16.70;99.90;;;;;;5089821;28;20105;-77
2021/07/01 03:01:06;;;;;;;5.47;3.10;;;16.70;99.90;;;;;;5090185;28;20123;-77
2021/07/01 03:03:32;;;;;;;5.35;2.55;;;16.60;99.90;;;;;;5089570;28;20022;-76
2021/07/01 03:05:57;;;;;;;7.53;3.05;;;16.60;99.90;;;;;;5089925;28;20024;-76
2021/07/01 03:08:23;;;;;;;4.55;3.10;;;16.50;99.90;;;;;;5089908;28;20040;-76
2021/07/01 03:10:48;;;;;;;7.15;3.05;;;16.50;99.90;;;;;;5089909;28;20024;-76
2021/07/01 03:13:14;;;;;;;5.53;3.08;;;16.50;99.90;;;;;;5090061;28;20379;-75
2021/07/01 03:15:41;;;;;;;5.90;3.40;;;16.50;99.90;;;;;;5089769;28;20119;-76
2021/07/01 03:18:06;;;;;;;5.32;2.90;;;16.50;99.90;;;;;;5089684;28;20432;-76
2021/07/01 03:20:32;;;;;;;4.40;2.90;;;16.50;99.90;;;;;;5089670;28;20028;-76
2021/07/01 03:22:57;;;;;;;4.80;2.63;;;16.50;99.90;;;;;;5089589;28;20514;-76
2021/07/01 03:25:23;;;;;;;2.72;2.35;;;16.50;99.90;;;;;;5089727;28;20043;-76
2021/07/01 03:27:48;;;;;;;2.72;2.30;;;16.40;99.90;;;;;;5089506;28;20031;-76
2021/07/01 03:30:14;;;;;;;4.28;2.38;;;16.40;99.90;;;;;;5089660;28;20027;-76
2021/07/01 03:32:40;;;;;;;2.85;2.00;;;16.40;99.90;;;;;;5089439;28;20027;-76
2021/07/01 03:35:06;;;;;;;2.15;1.60;;;16.40;99.90;;;;;;5089695;28;20109;-75
2021/07/01 03:37:32;;;;;;;3.03;1.92;;;16.30;99.90;;;;;;5089481;28;20024;-76
2021/07/01 03:39:58;;;;;;;1.70;1.30;;;16.40;99.90;;;;;;5089356;28;20031;-76
2021/07/01 03:42:23;;;;;;;2.67;1.30;;;16.30;99.90;;;;;;5089452;28;20383;-75
2021/07/01 03:44:49;;;;;;;2.10;1.17;;;16.30;99.90;;;;;;5089387;28;20039;-76
2021/07/01 03:47:14;;;;;;;1.10;1.00;;;16.30;99.90;;;;;;5089349;28;20016;-76
2021/07/01 03:49:40;;;;;;;1.77;1.30;;;16.30;99.90;;;;;;5089338;28;20024;-76
2021/07/01 03:52:06;;;;;;;1.20;1.10;;;16.20;99.90;;;;;;5089204;28;20032;-76
2021/07/01 03:54:32;;;;;;;1.08;1.02;;;16.30;99.90;;;;;;5089291;28;20024;-76
2021/07/01 03:56:59;;;;;;;1.20;1.10;;;16.20;99.90;;;;;;5089043;28;20102;-76
2021/07/01 03:59:24;;;;;;;1.00;0.88;;;16.20;99.90;;;;;;5089086;28;20513;-75
2021/07/01 04:01:50;;;;;;;1.73;1.20;;;16.20;99.90;;;;;;5089038;28;20047;-76
2021/07/01 04:04:15;;;;;;;1.15;1.02;;;16.20;99.90;;;;;;5089092;28;20378;-76
2021/07/01 04:06:41;;;;;;;1.30;1.15;;;16.10;99.90;;;;;;5088986;28;20024;-76
2021/07/01 04:09:06;;;;;;;0.93;0.93;;;16.10;99.90;;;;;;5088914;28;20054;-76
2021/07/01 04:11:34;;;;;;;1.02;0.98;;;16.10;99.90;;;;;;5088904;28;20032;-75
2021/07/01 04:14:00;;;;;;;3.83;1.77;;;16.10;99.90;;;;;;5088349;28;20117;-76
2021/07/01 04:16:25;;;;;;;1.20;1.00;;;16.00;99.90;;;;;;5088839;28;20024;-76
2021/07/01 04:18:51;;;;;;;1.65;1.10;;;16.00;99.90;;;;;;5088749;28;20028;-76
2021/07/01 04:21:16;;;;;;;1.27;1.00;;;16.00;99.90;;;;;;5088914;28;20029;-76
2021/07/01 04:23:42;;;;;;;2.85;1.30;;;16.00;99.90;;;;;;5088696;28;20364;-76
2021/07/01 04:26:08;;;;;;;1.52;1.20;;;15.90;99.90;;;;;;5088867;28;20134;-76
2021/07/01 04:28:33;;;;;;;4.50;1.27;;;15.90;99.90;;;;;;5088810;28;20095;-77
2021/07/01 04:30:59;;;;;;;5.68;1.65;;;15.90;99.90;;;;;;5088504;28;20036;-75
2021/07/01 04:33:25;;;;;;;4.22;1.20;;;15.90;99.90;;;;;;5088820;28;20032;-77
2021/07/01 04:35:50;;;;;;;2.80;1.08;;;15.90;99.90;;;;;;5088605;28;20026;-76
2021/07/01 04:38:17;;;;;;;1.27;1.17;;;15.80;99.90;;;;;;5088830;28;20406;-76
2021/07/01 04:40:44;;;;;;;1.35;1.25;;;15.80;99.90;;;;;;5088449;28;20040;-76
2021/07/01 04:43:10;;;;;;;1.40;1.27;;;15.80;99.90;;;;;;5087346;28;20016;-75
2021/07/01 04:45:35;;;;;;;0.98;0.98;;;15.80;99.90;;;;;;5088436;28;20032;-77
2021/07/01 04:48:02;;;;;;;2.35;1.17;;;15.70;99.90;;;;;;5088607;28;20023;-76
2021/07/01 04:50:27;;;;;;;1.95;1.15;;;15.70;99.90;;;;;;5088603;28;20038;-76
2021/07/01 04:52:53;;;;;;;1.85;1.13;;;15.70;99.90;;;;;;5088425;28;20028;-75
2021/07/01 04:55:18;;;;;;;1.40;1.30;;;15.70;99.90;;;;;;5088599;28;20063;-76
2021/07/01 04:57:44;;;;;;;1.08;1.00;;;15.70;99.90;;;;;;5088305;28;20031;-76
2021/07/01 05:00:10;;;;;;;1.20;1.10;;;15.60;99.90;;;;;;5088513;28;20336;-76
2021/07/01 05:02:36;;;;;;;0.95;0.93;;;15.60;99.90;;;;;;5088250;28;20524;-76
2021/07/01 05:05:02;;;;;;;1.30;1.00;;;15.60;99.90;;;;;;5088272;28;20020;-75
2021/07/01 05:07:27;;;;;;;1.60;1.20;;;15.60;99.90;;;;;;5088266;28;20035;-77
2021/07/01 05:09:53;;;;;;;1.17;1.08;;;15.60;99.90;;;;;;5088212;28;20028;-77
2021/07/01 05:12:18;;;;;;;1.63;1.20;;;15.60;99.90;;;;;;5088740;28;20024;-76
2021/07/01 05:14:44;;;;;;;4.28;1.25;;;15.60;99.90;;;;;;5088161;28;20435;-77
2021/07/01 05:17:09;;;;;;;4.30;1.50;;;15.60;99.90;;;;;;5088635;28;20024;-76
2021/07/01 05:19:35;;;;;;;1.30;1.20;;;15.60;99.90;;;;;;5088095;28;20080;-76
2021/07/01 05:22:00;;;;;;;5.82;2.00;;;15.60;99.90;;;;;;5088283;28;20031;-77
2021/07/01 05:24:26;;;;;;;2.90;1.52;;;15.60;99.90;;;;;;5088021;28;20471;-77
2021/07/01 05:26:51;;;;;;;1.20;1.10;;;15.50;99.90;;;;;;5091328;28;20099;-76
2021/07/01 05:29:17;;;;;;;2.95;1.10;;;15.50;99.90;;;;;;5091839;28;20031;-76
2021/07/01 05:31:42;;;;;;;0.93;0.80;;;15.50;99.90;;;;;;5091774;28;20373;-76
2021/07/01 05:34:08;;;;;;;1.23;0.90;;;15.50;99.90;;;;;;5091842;28;20032;-76
2021/07/01 05:36:33;;;;;;;1.23;1.13;;;15.50;99.90;;;;;;5091837;28;20190;-76
2021/07/01 05:38:58;;;;;;;1.50;1.02;;;15.50;99.90;;;;;;5091564;28;20027;-76
2021/07/01 05:41:24;;;;;;;1.00;0.70;;;15.60;99.90;;;;;;5091825;28;20377;-76
2021/07/01 05:43:49;;;;;;;1.90;0.93;;;15.50;99.90;;;;;;5091481;28;20032;-76
2021/07/01 05:46:15;;;;;;;2.05;1.15;;;15.50;99.90;;;;;;5091649;28;20028;-76
2021/07/01 05:48:41;;;;;;;1.25;1.00;;;15.50;99.90;;;;;;5091476;28;20030;-76
2021/07/01 05:51:09;;;;;;;1.10;1.00;;;15.50;99.90;;;;;;5091637;28;20447;-75
2021/07/01 05:53:46;;;;;;;4.00;0.95;;;15.50;99.90;;;;;;5091711;28;20419;-76
2021/07/01 05:56:13;;;;;;;1.45;1.17;;;15.50;99.90;;;;;;5091543;28;20538;-75
2021/07/01 05:58:38;;;;;;;1.25;1.15;;;15.50;99.90;;;;;;5091119;28;20058;-75
2021/07/01 06:01:04;;;;;;;6.75;0.93;;;15.50;99.90;;;;;;5091359;28;20028;-75
2021/07/01 06:03:29;;;;;;;1.00;0.80;;;15.40;99.90;;;;;;5091313;28;20111;-76
2021/07/01 06:06:00;;;;;;;1.77;1.08;;;15.40;99.90;;;;;;5091288;28;20274;-75
2021/07/01 06:08:28;;;;;;;1.40;1.30;;;15.40;99.90;;;;;;5091242;28;20048;-76
2021/07/01 06:10:58;;;;;;;6.15;0.90;;;15.40;99.90;;;;;;5090970;28;20059;-75
2021/07/01 06:13:25;;;;;;;1.15;1.05;;;15.40;99.90;;;;;;5091162;28;20237;-75
2021/07/01 06:15:52;;;;;;;1.27;1.00;;;15.40;99.90;;;;;;5090962;28;20111;-76
2021/07/01 06:18:21;;;;;;;1.20;1.10;;;15.40;99.90;;;;;;5091127;28;20024;-76
2021/07/01 06:20:48;;;;;;;1.48;1.02;;;15.40;99.90;;;;;;5090895;28;20070;-76
2021/07/01 06:23:14;;;;;;;0.82;0.82;;;15.40;99.90;;;;;;5091022;28;20351;-75
2021/07/01 06:25:40;;;;;;;1.10;0.88;;;15.40;99.90;;;;;;5090785;28;20039;-76
2021/07/01 06:28:05;;;;;;;0.80;0.80;;;15.40;99.90;;;;;;5090591;28;20016;-77
2021/07/01 06:30:31;;;;;;;0.80;0.80;;;15.40;99.90;;;;;;5090813;28;20170;-75
2021/07/01 06:32:56;;;;;;;1.23;1.02;;;15.40;99.90;;;;;;5090604;28;20024;-75
2021/07/01 06:35:25;;;;;;;0.95;0.85;;;15.40;99.90;;;;;;5090967;28;20387;-76
2021/07/01 06:37:55;;;;;;;1.00;0.90;;;15.40;99.90;;;;;;5089775;28;20107;-76
2021/07/01 06:40:23;;;;;;;0.95;0.90;;;15.40;99.90;;;;;;5090531;28;20119;-76
2021/07/01 06:42:56;;;;;;;1.30;1.08;;;15.40;99.90;;;;;;5090492;28;20024;-76
2021/07/01 06:45:23;;;;;;;1.38;1.10;;;15.50;99.90;;;;;;5090629;28;20056;-76
2021/07/01 06:47:51;;;;;;;1.25;1.00;;;15.50;99.90;;;;;;5090316;28;20024;-75
2021/07/01 06:50:20;;;;;;;2.88;1.50;;;15.50;99.90;;;;;;5090379;28;20028;-76
2021/07/01 06:52:46;;;;;;;1.95;1.60;;;15.50;99.90;;;;;;5090077;28;20477;-76
2021/07/01 06:55:14;;;;;;;1.45;1.33;;;15.50;99.90;;;;;;5090281;28;20051;-76
2021/07/01 06:57:40;;;;;;;2.65;1.60;;;15.50;99.90;;;;;;5090164;28;20020;-76
2021/07/01 07:00:09;;;;;;;4.30;1.90;;;15.50;99.90;;;;;;5090124;28;20024;-76
2021/07/01 07:02:35;;;;;;;3.05;1.90;;;15.50;99.90;;;;;;5090166;28;20081;-76
2021/07/01 07:05:12;;;;;;;3.20;2.00;;;15.50;99.90;;;;;;5089862;28;20316;-75
2021/07/01 07:07:40;;;;;;;2.92;1.95;;;15.50;99.90;;;;;;5089839;28;20040;-76
2021/07/01 07:10:07;;;;;;;2.38;1.52;;;15.50;99.90;;;;;;5089926;28;20020;-76
2021/07/01 07:12:44;;;;;;;1.80;1.38;;;15.50;99.90;;;;;;5089884;28;20035;-76
2021/07/01 07:15:16;;;;;;;1.40;1.15;;;15.50;99.90;;;;;;5089851;28;20024;-76
2021/07/01 07:17:44;;;;;;;1.55;1.20;;;15.40;99.90;;;;;;5089849;28;20024;-75
2021/07/01 07:20:13;;;;;;;1.65;1.20;;;15.40;99.90;;;;;;5089806;28;20035;-76
2021/07/01 07:22:42;;;;;;;2.30;1.55;;;15.40;99.90;;;;;;5089616;28;20474;-75
2021/07/01 07:25:11;;;;;;;2.45;1.58;;;15.50;99.90;;;;;;5089663;28;20378;-76
2021/07/01 07:27:38;;;;;;;2.40;1.67;;;15.50;99.90;;;;;;5089651;28;20024;-75
2021/07/01 07:30:06;;;;;;;3.67;1.77;;;15.50;99.90;;;;;;5089515;28;20470;-75
2021/07/01 07:32:32;;;;;;;1.95;1.30;;;15.50;99.90;;;;;;5089482;28;20107;-76
2021/07/01 07:34:58;;;;;;;2.83;1.70;;;15.50;99.90;;;;;;5089412;28;20034;-75
2021/07/01 07:37:23;;;;;;;1.30;1.20;;;15.50;99.90;;;;;;5089463;28;20181;-75
2021/07/01 07:39:50;;;;;;;2.15;1.50;;;15.50;99.90;;;;;;5089566;28;20141;-76
2021/07/01 07:42:17;;;;;;;1.77;1.50;;;15.50;99.90;;;;;;5089511;28;20046;-76
2021/07/01 07:44:44;;;;;;;3.35;1.90;;;15.60;99.90;;;;;;5089369;28;20047;-76
2021/07/01 07:47:14;;;;;;;4.95;1.85;;;15.60;99.90;;;;;;5089581;28;20047;-76
2021/07/01 07:49:41;;;;;;;2.90;1.30;;;15.60;99.90;;;;;;5088442;28;20027;-76
2021/07/01 07:52:10;;;;;;;3.83;1.60;;;15.60;99.90;;;;;;5071868;28;20435;-76
2021/07/01 07:54:46;;;;;;;3.45;1.33;;;15.60;99.90;;;;;;5069089;28;20032;-76
2021/07/01 07:57:13;;;;;;;2.20;1.50;;;15.60;99.90;;;;;;5068844;28;20288;-77
2021/07/01 07:59:40;;;;;;;1.55;1.27;;;15.60;99.90;;;;;;5087488;28;20595;-76
2021/07/01 08:02:07;;;;;;;1.10;1.00;;;15.60;99.90;;;;;;5088864;28;20103;-76
2021/07/01 08:04:35;;;;;;;0.90;0.82;;;15.50;99.90;;;;;;5089035;28;20032;-77
2021/07/01 08:07:03;;;;;;;2.08;1.30;;;15.60;99.90;;;;;;5088833;28;20028;-78
2021/07/01 08:09:29;;;;;;;1.70;1.25;;;15.50;99.90;;;;;;5088726;28;20348;-76
2021/07/01 08:11:57;;;;;;;2.13;1.75;;;15.50;99.90;;;;;;5088583;28;20393;-76
2021/07/01 08:14:23;;;;;;;1.20;1.10;;;15.50;99.90;;;;;;5089118;28;20117;-76
2021/07/01 08:16:49;;;;;;;9.77;4.03;;;15.50;99.90;;;;;;5080118;28;20036;-76
2021/07/01 08:19:14;;;;;;;7.95;4.63;;;15.50;99.90;;;;;;5070743;28;20059;-75
2021/07/01 08:21:40;;;;;;;10.63;4.55;;;15.50;99.90;;;;;;5088135;28;20052;-76
2021/07/01 08:24:08;;;;;;;4.82;2.15;;;15.60;99.90;;;;;;5088854;28;20031;-76
2021/07/01 08:26:35;;;;;;;2.55;1.83;;;15.50;99.90;;;;;;5075873;28;20016;-77
2021/07/01 08:29:00;;;;;;;1.92;1.10;;;15.50;99.90;;;;;;5088639;28;20134;-77
2021/07/01 08:31:29;;;;;;;1.67;1.10;;;15.50;99.90;;;;;;5087413;28;20586;-77
2021/07/01 08:33:57;;;;;;;1.23;0.82;;;15.50;99.90;;;;;;5088648;28;20081;-76
2021/07/01 08:36:24;;;;;;;2.35;1.38;;;15.50;99.90;;;;;;5080978;28;20096;-77
2021/07/01 08:38:52;;;;;;;2.80;1.50;;;15.50;99.90;;;;;;5068357;28;20448;-78
2021/07/01 08:41:20;;;;;;;1.90;1.25;;;15.50;99.90;;;;;;5068508;28;20120;-76
2021/07/01 08:43:54;;;;;;;1.55;1.40;;;15.50;99.90;;;;;;5068415;28;20028;-77
2021/07/01 08:46:48;;;;;;;1.50;1.02;;;15.50;99.90;;;;;;5068511;28;20033;-76
2021/07/01 08:49:32;;;;;;;0.85;0.85;;;15.40;99.90;;;;;;5068512;28;20028;-77
2021/07/01 08:52:03;;;;;;;1.88;0.90;;;15.50;99.90;;;;;;5068217;28;20025;-76
2021/07/01 08:54:34;;;;;;;1.33;1.20;;;15.50;99.90;;;;;;5068387;28;20069;-76
2021/07/01 08:57:01;;;;;;;1.45;1.35;;;15.50;99.90;;;;;;5068208;28;20039;-76
2021/07/01 08:59:37;;;;;;;1.10;1.00;;;15.50;99.90;;;;;;5085287;28;20047;-76
2021/07/01 09:02:08;;;;;;;1.45;1.27;;;15.50;99.90;;;;;;5092070;28;20482;-77
2021/07/01 09:04:46;;;;;;;1.67;0.90;;;15.50;99.90;;;;;;5092391;28;20055;-77
2021/07/01 09:07:19;;;;;;;1.35;1.25;;;15.50;99.90;;;;;;5092575;28;20341;-77
2021/07/01 09:10:04;;;;;;;4.55;1.75;;;15.50;99.90;;;;;;5092386;28;20099;-78
2021/07/01 09:12:31;;;;;;;2.17;1.42;;;15.50;99.90;;;;;;5092340;28;20593;-76
2021/07/01 09:15:01;;;;;;;2.95;1.50;;;15.50;99.90;;;;;;5092124;28;20047;-78
2021/07/01 09:17:31;;;;;;;1.63;1.38;;;15.50;99.90;;;;;;5092483;28;20406;-77
2021/07/01 09:19:59;;;;;;;2.17;1.10;;;15.50;99.90;;;;;;5091892;28;20474;-78
2021/07/01 09:22:26;;;;;;;2.17;1.33;;;15.50;99.90;;;;;;5092126;28;20017;-76
2021/07/01 09:24:54;;;;;;;1.98;1.33;;;15.50;99.90;;;;;;5091944;28;20015;-77
2021/07/01 09:27:20;;;;;;;1.40;1.30;;;15.50;99.90;;;;;;5092318;28;20048;-77
2021/07/01 09:29:50;;;;;;;1.88;1.63;;;15.50;99.90;;;;;;5091986;28;20475;-76
2021/07/01 09:32:18;;;;;;;3.70;1.80;;;15.40;99.90;;;;;;5091823;28;20078;-76
2021/07/01 09:34:45;;;;;;;1.90;1.67;;;15.40;99.90;;;;;;5092317;28;20034;-76
2021/07/01 09:37:11;;;;;;;2.13;1.92;;;15.40;99.90;;;;;;5091628;28;20024;-76
2021/07/01 09:39:37;;;;;;;2.85;2.08;;;15.30;99.90;;;;;;5091843;28;20032;-77
2021/07/01 09:42:04;;;;;;;1.88;1.67;;;15.30;99.90;;;;;;5091674;28;20020;-76
2021/07/01 09:44:32;;;;;;;1.95;1.67;;;15.30;99.90;;;;;;5091831;28;20549;-77
2021/07/01 09:46:59;;;;;;;3.00;2.10;;;15.30;99.90;;;;;;5091464;28;20032;-76
2021/07/01 09:49:41;;;;;;;1.88;1.70;;;15.40;99.90;;;;;;5091852;28;20299;-77
2021/07/01 09:52:08;;;;;;;;;;;15.40;99.90;;;;;;5091735;28;20226;-77
2021/07/01 09:54:36;;;;;;;1.70;1.60;;;15.40;99.90;;;;;;5091472;28;19904;-79
2021/07/01 09:57:15;;;;;;;1.77;1.65;;;15.40;99.90;;;;;;5091325;28;20028;-77
2021/07/01 09:59:51;;;;;;;3.28;2.13;;;15.40;99.90;;;;;;5091459;28;20024;-77
2021/07/01 10:02:21;;;;;;;3.50;1.60;;;15.40;99.90;;;;;;5091024;28;20035;-77
2021/07/01 10:04:47;;;;;;;3.35;2.00;;;15.40;99.90;;;;;;5091225;28;20035;-79
2021/07/01 10:07:23;;;;;;;2.83;2.53;;;15.40;99.90;;;;;;5091383;28;20107;-76
2021/07/01 10:09:55;;;;;;;4.25;3.17;;;15.40;99.90;;;;;;5091314;28;20067;-77
2021/07/01 10:12:24;;;;;;;5.30;3.63;;;15.40;99.90;;;;;;5090059;28;20048;-77
2021/07/01 10:14:51;;;;;;;4.55;3.33;;;15.30;99.90;;;;;;5091050;28;20073;-77
2021/07/01 10:17:20;;;;;;;6.03;3.40;;;15.40;99.90;;;;;;5090964;28;20028;-78
2021/07/01 10:19:47;;;;;;;2.70;2.50;;;15.40;99.90;;;;;;5090906;28;20021;-79
2021/07/01 10:22:20;;;;;;;3.42;2.60;;;15.40;99.90;;;;;;5091066;28;20024;-76
2021/07/01 10:24:51;;;;;;;2.85;2.58;;;15.40;99.90;;;;;;5091102;28;20027;-77
2021/07/01 10:27:36;;;;;;;3.03;2.70;;;15.50;99.90;;;;;;5090811;28;20107;-77
2021/07/01 10:30:13;;;;;;;2.70;2.50;;;15.50;99.90;;;;;;5090996;28;20514;-76
2021/07/01 10:32:44;;;;;;;5.00;3.00;;;15.50;99.90;;;;;;5090883;28;20050;-77
2021/07/01 10:35:29;;;;;;;3.00;2.53;;;15.50;99.90;;;;;;5090568;28;20070;-76
2021/07/01 10:37:56;;;;;;;3.00;2.70;;;15.50;99.90;;;;;;5090523;28;20111;-77
2021/07/01 10:40:22;;;;;;;3.50;2.70;;;15.50;99.90;;;;;;5090463;28;20478;-76
2021/07/01 10:42:55;;;;;;;3.28;2.97;;;15.50;99.90;;;;;;5090527;28;20204;-77
2021/07/01 10:45:20;;;;;;;4.30;3.47;;;15.50;99.90;;;;;;5090438;28;20565;-79
2021/07/01 10:47:46;;;;;;;2.55;2.35;;;15.50;99.90;;;;;;5090508;28;20107;-76
2021/07/01 10:50:22;;;;;;;4.45;3.03;;;15.50;99.90;;;;;;5090203;28;20035;-77
2021/07/01 10:52:48;;;;;;;4.78;3.60;;;15.50;99.90;;;;;;5090422;28;20035;-77
2021/07/01 10:55:17;;;;;;;3.40;2.72;;;15.50;99.90;;;;;;5090159;28;20062;-77
2021/07/01 10:57:48;;;;;;;3.95;3.25;;;15.50;99.90;;;;;;5090407;28;20024;-76
2021/07/01 11:00:14;;;;;;;4.20;2.92;;;15.50;99.90;;;;;;5089960;28;20077;-76
2021/07/01 11:02:49;;;;;;;5.75;3.10;;;15.50;99.90;;;;;;5090266;28;20024;-76
2021/07/01 11:05:15;;;;;;;3.97;3.20;;;15.50;99.90;;;;;;5090026;28;20024;-77
2021/07/01 11:07:45;;;;;;;5.03;2.90;;;15.50;99.90;;;;;;5089937;28;20224;-77
2021/07/01 11:10:13;;;;;;;7.70;3.40;;;15.50;99.90;;;;;;5089912;28;20081;-77
2021/07/01 11:12:44;;;;;;;3.60;3.20;;;15.40;99.90;;;;;;5090022;28;20451;-76
2021/07/01 11:15:10;;;;;;;4.03;3.38;;;15.40;99.90;;;;;;5089722;28;20394;-76
2021/07/01 11:17:37;;;;;;;4.60;3.60;;;15.50;99.90;;;;;;5089914;28;20478;-77
2021/07/01 11:20:22;;;;;;;5.45;3.60;;;15.50;99.90;;;;;;5089602;28;20039;-77
2021/07/01 11:22:58;;;;;;;5.25;4.00;;;15.50;99.90;;;;;;5089645;28;20510;-77
2021/07/01 11:25:27;;;;;;;7.72;3.53;;;15.50;99.90;;;;;;5089807;28;20028;-77
2021/07/01 11:28:26;;;;;;;7.97;4.32;;;15.50;99.90;;;;;;5089882;28;20024;-77
2021/07/01 11:30:54;;;;;;;6.70;4.18;;;15.50;99.90;;;;;;5089596;28;20031;-77
2021/07/01 11:33:21;;;;;;;9.80;4.45;;;15.60;99.90;;;;;;5089610;28;20020;-78
2021/07/01 11:35:48;;;;;;;4.25;3.85;;;15.60;99.90;;;;;;5089698;28;20066;-77
2021/07/01 11:38:24;;;;;;;5.47;3.70;;;15.60;99.90;;;;;;5089248;28;20043;-77
2021/07/01 11:40:50;;;;;;;5.10;3.97;;;15.60;99.90;;;;;;5089387;28;20038;-76
2021/07/01 11:43:17;;;;;;;6.35;3.80;;;15.60;99.90;;;;;;5089445;28;20039;-79
2021/07/01 11:45:43;;;;;;;5.10;4.10;;;15.60;99.90;;;;;;5089334;28;20030;-78
2021/07/01 11:48:09;;;;;;;6.65;3.63;;;15.70;99.90;;;;;;5089202;28;20390;-77
2021/07/01 11:50:35;;;;;;;4.38;3.95;;;15.70;99.90;;;;;;5089154;28;20024;-78
2021/07/01 11:53:02;;;;;;;6.22;4.43;;;15.70;99.90;;;;;;5089106;28;20027;-77
2021/07/01 11:55:28;;;;;;;6.55;4.20;;;15.80;99.90;;;;;;5089402;28;20035;-78
2021/07/01 11:57:54;;;;;;;5.55;4.32;;;15.80;99.90;;;;;;5089425;28;20020;-77
2021/07/01 12:00:19;;;;;;;4.47;3.95;;;15.80;99.90;;;;;;5088912;28;20517;-77
2021/07/01 12:02:45;;;;;;;5.53;4.38;;;15.90;99.90;;;;;;5089210;28;20030;-77
2021/07/01 12:05:12;;;;;;;5.20;4.13;;;15.90;99.90;;;;;;5088807;28;20094;-77
2021/07/01 12:07:42;;;;;;;8.05;4.22;;;16.00;99.90;;;;;;5088962;28;20109;-77
2021/07/01 12:10:09;;;;;;;7.13;4.60;;;16.00;99.90;;;;;;5089006;28;20071;-77
2021/07/01 12:12:35;;;;;;;6.00;4.45;;;16.10;99.90;;;;;;5089043;28;20032;-77
2021/07/01 12:15:02;;;;;;;5.65;3.80;;;16.20;99.90;;;;;;5089013;28;20119;-77
2021/07/01 12:17:55;;;;;;;6.03;4.20;;;16.10;99.90;;;;;;5089725;28;20035;-77
2021/07/01 12:20:32;;;;;;;6.05;4.57;;;16.20;99.90;;;;;;5088571;28;20433;-77
2021/07/01 12:23:23;;;;;;;6.97;4.47;;;16.20;99.90;;;;;;5088586;28;20119;-76
2021/07/01 12:25:56;;;;;;;6.35;4.70;;;16.20;99.90;;;;;;5088419;28;20055;-78
2021/07/01 12:28:25;;;;;;;8.25;5.10;;;16.20;99.90;;;;;;5088618;28;20471;-78
2021/07/01 12:31:08;;;;;;;6.28;4.65;;;16.30;99.90;;;;;;5088717;28;20119;-77
2021/07/01 12:33:45;;;;;;;8.45;5.15;;;16.30;99.90;;;;;;5089088;28;20035;-77
2021/07/01 12:36:13;;;;;;;6.85;5.32;;;16.40;99.90;;;;;;5087839;28;20460;-78
2021/07/01 12:38:41;;;;;;;7.35;5.32;;;16.50;99.90;;;;;;5088613;28;20486;-76
2021/07/01 12:41:09;;;;;;;6.93;5.55;;;16.70;99.90;;;;;;5088589;28;20059;-77
2021/07/01 12:43:44;;;;;;;6.63;4.57;;;16.70;99.90;;;;;;5088566;28;20020;-77
2021/07/01 12:46:10;;;;;;;8.25;4.32;;;16.70;99.90;;;;;;5088501;28;20020;-77
2021/07/01 12:48:40;;;;;;;6.78;4.63;;;16.70;99.90;;;;;;5088724;28;20024;-77